Time;durP1;ratioP1;P1;durP2;ratioP2;P2;SDS_P1;SDS_P2;PMS_P1;PMS_P2;Temp;Humidity;BMP_temperature;BMP_pressure;BME280_temperature;BME280_humidity;BME280_pressure;Samples;Min_cycle;Max_cycle;Signal;HPM_P1;HPM_P2
2023/12/23 00:02:13;;;;;;;;;;;;;;;-3.24;100.00;94673.94;5012694;28;20035;-66
2023/12/23 00:04:38;;;;;;;;;;;;;;;-3.17;100.00;94684.72;5010047;28;19994;-66
2023/12/23 00:07:03;;;;;;;;;;;;;;;-3.10;100.00;94675.50;5015808;28;19995;-66
2023/12/23 00:09:29;;;;;;;;;;;;;;;-3.18;100.00;94678.69;5015308;28;20381;-65
2023/12/23 00:11:54;;;;;;;;;;;;;;;-2.79;100.00;94691.41;5015431;28;19989;-66
2023/12/23 00:14:19;;;;;;;;;;;;;;;-2.98;100.00;94704.16;5008904;28;20064;-65
2023/12/23 00:16:45;;;;;;;;;;;;;;;-3.21;100.00;94693.72;5011926;28;20104;-65
2023/12/23 00:19:10;;;;;;;;;;;;;;;-3.19;100.00;94715.28;5016451;28;19983;-66
2023/12/23 00:21:35;;;;;;;;;;;;;;;-3.11;100.00;94702.50;5016443;28;20936;-66
2023/12/23 00:24:01;;;;;;;;;;;;;;;-3.27;100.00;94716.66;5006848;28;20039;-66
2023/12/23 00:26:26;;;;;;;;;;;;;;;-3.22;100.00;94718.94;5015654;28;20529;-66
2023/12/23 00:28:52;;;;;;;;;;;;;;;-3.35;100.00;94711.22;5013548;28;19994;-66
2023/12/23 00:31:17;;;;;;;;;;;;;;;-3.16;100.00;94718.47;5015316;28;20416;-66
2023/12/23 00:33:44;;;;;;;;;;;;;;;-3.01;100.00;94713.06;5016761;28;20040;-66
2023/12/23 00:36:09;;;;;;;;;;;;;;;-3.19;100.00;94712.66;5015485;28;20002;-66
2023/12/23 00:38:35;;;;;;;;;;;;;;;-3.29;100.00;94717.72;5017603;28;19984;-66
2023/12/23 00:41:00;;;;;;;;;;;;;;;-3.16;100.00;94728.06;5016525;28;20080;-66
2023/12/23 00:43:25;;;;;;;;;;;;;;;-3.31;100.00;94735.22;5016984;28;19993;-65
2023/12/23 00:45:51;;;;;;;;;;;;;;;-3.27;100.00;94721.88;5016647;28;19981;-66
2023/12/23 00:48:17;;;;;;;;;;;;;;;-3.31;100.00;94741.28;5016369;28;19993;-65
2023/12/23 00:50:42;;;;;;;;;;;;;;;-3.22;100.00;94768.41;5016167;28;20068;-66
2023/12/23 00:53:07;;;;;;;;;;;;;;;-3.65;100.00;94738.53;5016373;28;20084;-66
2023/12/23 00:55:32;;;;;;;;;;;;;;;-3.07;100.00;94736.94;5015648;28;20438;-65
2023/12/23 00:57:58;;;;;;;;;;;;;;;-3.37;100.00;94739.13;5017388;28;20001;-66
2023/12/23 01:00:23;;;;;;;;;;;;;;;-3.02;100.00;94740.88;5017416;28;20021;-66
2023/12/23 01:02:48;;;;;;;;;;;;;;;-2.76;100.00;94735.47;5016163;28;20508;-66
2023/12/23 01:05:13;;;;;;;;;;;;;;;-2.83;100.00;94731.66;5015033;28;20001;-66
2023/12/23 01:07:41;;;;;;;;;;;;;;;-3.39;100.00;94751.44;5016871;28;20474;-66
2023/12/23 01:10:07;;;;;;;;;;;;;;;-3.32;100.00;94726.59;5010566;28;20439;-66
2023/12/23 01:12:32;;;;;;;;;;;;;;;-3.24;100.00;94733.84;5017847;28;20003;-66
2023/12/23 01:14:57;;;;;;;;;;;;;;;-3.32;100.00;94742.22;5004536;28;20429;-66
2023/12/23 01:17:22;;;;;;;;;;;;;;;-3.05;100.00;94737.69;5018962;28;20000;-66
2023/12/23 01:19:48;;;;;;;;;;;;;;;-3.19;100.00;94730.91;5019660;28;20037;-66
2023/12/23 01:22:13;;;;;;;;;;;;;;;-3.17;100.00;94734.19;5020121;28;20000;-66
2023/12/23 01:24:38;;;;;;;;;;;;;;;-3.21;100.00;94732.78;5019140;28;20374;-66
2023/12/23 01:27:04;;;;;;;;;;;;;;;-2.95;100.00;94737.81;5017502;28;19994;-66
2023/12/23 01:29:29;;;;;;;;;;;;;;;-3.07;100.00;94752.56;5016934;28;20079;-66
2023/12/23 01:31:54;;;;;;;;;;;;;;;-2.96;100.00;94764.81;5018372;28;19989;-67
2023/12/23 01:34:19;;;;;;;;;;;;;;;-3.17;100.00;94776.72;5014436;28;20004;-68
2023/12/23 01:36:45;;;;;;;;;;;;;;;-3.33;100.00;94758.75;5017404;28;20001;-68
2023/12/23 01:39:10;;;;;;;;;;;;;;;-3.16;100.00;94761.91;5018520;28;19986;-68
2023/12/23 01:41:36;;;;;;;;;;;;;;;-3.06;100.00;94769.88;5018544;28;19969;-68
2023/12/23 01:44:01;;;;;;;;;;;;;;;-2.98;100.00;94738.03;5018070;28;19985;-68
2023/12/23 01:46:26;;;;;;;;;;;;;;;-3.52;100.00;94751.50;5016981;28;19969;-68
2023/12/23 01:48:51;;;;;;;;;;;;;;;-3.31;100.00;94756.06;5017926;28;20853;-68
2023/12/23 01:51:17;;;;;;;;;;;;;;;-3.38;100.00;94760.88;5017936;28;19993;-68
2023/12/23 01:53:42;;;;;;;;;;;;;;;-3.30;100.00;94755.09;5017998;28;20453;-68
2023/12/23 01:56:07;;;;;;;;;;;;;;;-3.22;100.00;94764.97;5018570;28;20305;-68
2023/12/23 01:58:33;;;;;;;;;;;;;;;-3.25;100.00;94755.63;5018745;28;20730;-67
2023/12/23 02:00:58;;;;;;;;;;;;;;;-3.15;100.00;94745.34;5017330;28;19969;-68
2023/12/23 02:03:23;;;;;;;;;;;;;;;-3.15;100.00;94761.78;5017816;28;19989;-68
2023/12/23 02:05:48;;;;;;;;;;;;;;;-3.36;100.00;94779.00;5017595;28;20020;-68
2023/12/23 02:08:14;;;;;;;;;;;;;;;-3.44;100.00;94756.97;5017290;28;19989;-68
2023/12/23 02:10:39;;;;;;;;;;;;;;;-3.31;100.00;94764.72;5017256;28;19977;-67
2023/12/23 02:13:10;;;;;;;;;;;;;;;-3.14;100.00;94762.63;5016385;28;19968;-68
2023/12/23 02:15:36;;;;;;;;;;;;;;;-3.17;100.00;94755.03;5014566;28;19994;-68
2023/12/23 02:18:01;;;;;;;;;;;;;;;-3.24;100.00;94757.25;5015059;28;20811;-67
2023/12/23 02:20:27;;;;;;;;;;;;;;;-2.66;100.00;94761.66;5018043;28;20335;-68
2023/12/23 02:22:52;;;;;;;;;;;;;;;-2.73;100.00;94759.63;5019053;28;19990;-68
2023/12/23 02:25:17;;;;;;;;;;;;;;;-2.28;99.51;94744.00;5015858;28;20009;-68
2023/12/23 02:27:46;;;;;;;;;;;;;;;-2.18;98.58;94738.06;5015692;28;20521;-68
2023/12/23 02:30:12;;;;;;;;;;;;;;;-2.25;99.29;94750.75;5016554;28;19969;-68
2023/12/23 02:32:38;;;;;;;;;;;;;;;-2.27;98.94;94739.63;5017872;28;20752;-68
2023/12/23 02:35:03;;;;;;;;;;;;;;;-2.57;99.91;94751.47;5015818;28;19997;-68
2023/12/23 02:37:28;;;;;;;;;;;;;;;-2.53;100.00;94738.09;5016827;28;20707;-68
2023/12/23 02:39:54;;;;;;;;;;;;;;;-2.05;98.66;94737.94;5017924;28;20047;-68
2023/12/23 02:42:19;;;;;;;;;;;;;;;-2.41;99.50;94738.91;5018310;28;20445;-68
2023/12/23 02:44:44;;;;;;;;;;;;;;;-2.15;98.57;94740.44;5015810;28;20067;-68
2023/12/23 02:47:09;;;;;;;;;;;;;;;-2.18;99.77;94728.47;5017040;28;20083;-68
2023/12/23 02:49:35;;;;;;;;;;;;;;;-2.35;100.00;94721.97;5016077;28;19970;-68
2023/12/23 02:52:00;;;;;;;;;;;;;;;-2.24;99.34;94735.00;5018903;28;20397;-68
2023/12/23 02:54:25;;;;;;;;;;;;;;;-2.41;100.00;94738.91;5017072;28;20020;-68
2023/12/23 02:56:52;;;;;;;;;;;;;;;-2.10;99.79;94725.28;5016668;28;19997;-68
2023/12/23 02:59:17;;;;;;;;;;;;;;;-1.83;97.38;94726.63;5017337;28;20039;-68
2023/12/23 03:01:43;;;;;;;;;;;;;;;-2.26;99.60;94731.69;5017662;28;20587;-68
2023/12/23 03:04:08;;;;;;;;;;;;;;;-2.60;100.00;94713.44;5016655;28;20297;-68
2023/12/23 03:06:33;;;;;;;;;;;;;;;-2.19;100.00;94720.75;5016612;28;19976;-68
2023/12/23 03:08:59;;;;;;;;;;;;;;;-2.33;100.00;94725.28;5017634;28;19996;-68
2023/12/23 03:11:24;;;;;;;;;;;;;;;-2.33;100.00;94714.88;5017544;28;19994;-68
2023/12/23 03:13:50;;;;;;;;;;;;;;;-2.35;100.00;94706.31;5013968;28;19997;-68
2023/12/23 03:16:16;;;;;;;;;;;;;;;-2.24;100.00;94711.53;5015928;28;20009;-68
2023/12/23 03:18:41;;;;;;;;;;;;;;;-2.36;100.00;94696.84;5016034;28;19965;-68
2023/12/23 03:21:07;;;;;;;;;;;;;;;-2.40;100.00;94704.09;5020456;28;20351;-68
2023/12/23 03:23:32;;;;;;;;;;;;;;;-2.37;100.00;94689.97;5017085;28;19993;-68
2023/12/23 03:25:57;;;;;;;;;;;;;;;-1.83;100.00;94689.28;5016231;28;20144;-68
2023/12/23 03:28:22;;;;;;;;;;;;;;;-1.93;99.88;94683.97;5014398;28;19989;-68
2023/12/23 03:30:48;;;;;;;;;;;;;;;-1.72;99.51;94691.84;5016849;28;20635;-69
2023/12/23 03:33:15;;;;;;;;;;;;;;;-2.22;100.00;94680.09;5017168;28;19973;-69
2023/12/23 03:35:41;;;;;;;;;;;;;;;-2.24;100.00;94687.25;5014919;28;19997;-69
2023/12/23 03:38:06;;;;;;;;;;;;;;;-2.40;100.00;94698.03;5016284;28;20004;-69
2023/12/23 03:40:31;;;;;;;;;;;;;;;-2.43;100.00;94674.81;5016704;28;19973;-69
2023/12/23 03:42:56;;;;;;;;;;;;;;;-2.71;100.00;94679.56;5015771;28;20092;-68
2023/12/23 03:45:22;;;;;;;;;;;;;;;-2.58;100.00;94671.63;5015863;28;20666;-68
2023/12/23 03:47:47;;;;;;;;;;;;;;;-2.58;100.00;94679.44;5016555;28;20023;-68
2023/12/23 03:50:12;;;;;;;;;;;;;;;-2.56;100.00;94672.31;5016971;28;20021;-69
2023/12/23 03:52:37;;;;;;;;;;;;;;;-2.44;100.00;94681.78;5014086;28;19973;-69
2023/12/23 03:55:03;;;;;;;;;;;;;;;-2.43;100.00;94669.59;5015394;28;20214;-68
2023/12/23 03:57:28;;;;;;;;;;;;;;;-2.41;100.00;94659.88;5017899;28;20338;-67
2023/12/23 03:59:54;;;;;;;;;;;;;;;-2.33;100.00;94686.19;5016278;28;19966;-67
2023/12/23 04:02:19;;;;;;;;;;;;;;;-2.39;100.00;94676.22;5014697;28;19994;-67
2023/12/23 04:04:44;;;;;;;;;;;;;;;-2.38;100.00;94706.56;5015606;28;20023;-67
2023/12/23 04:07:09;;;;;;;;;;;;;;;-2.38;100.00;94664.84;5016211;28;20433;-67
2023/12/23 04:09:35;;;;;;;;;;;;;;;-2.19;100.00;94668.59;5016894;28;20024;-67
2023/12/23 04:12:00;;;;;;;;;;;;;;;-2.07;100.00;94661.59;5016955;28;20027;-67
2023/12/23 04:14:25;;;;;;;;;;;;;;;-2.02;100.00;94652.44;5012861;28;20025;-67
2023/12/23 04:16:50;;;;;;;;;;;;;;;-2.07;100.00;94646.75;5016496;28;20080;-67
2023/12/23 04:19:16;;;;;;;;;;;;;;;-2.10;100.00;94649.63;5016636;28;20092;-67
2023/12/23 04:21:41;;;;;;;;;;;;;;;-2.11;100.00;94634.91;5016259;28;19993;-67
2023/12/23 04:24:06;;;;;;;;;;;;;;;-2.10;100.00;94636.59;5016997;28;19974;-67
2023/12/23 04:26:32;;;;;;;;;;;;;;;-1.94;100.00;94651.81;5015121;28;19994;-67
2023/12/23 04:28:58;;;;;;;;;;;;;;;-1.78;100.00;94661.84;5008713;28;20488;-67
2023/12/23 04:31:23;;;;;;;;;;;;;;;-1.93;100.00;94637.81;5016282;28;19974;-67
2023/12/23 04:33:48;;;;;;;;;;;;;;;-2.03;100.00;94642.94;5016392;28;20005;-67
2023/12/23 04:36:14;;;;;;;;;;;;;;;-1.86;100.00;94646.00;5015930;28;19990;-67
2023/12/23 04:38:39;;;;;;;;;;;;;;;-1.89;100.00;94630.56;5016637;28;20075;-67
2023/12/23 04:41:04;;;;;;;;;;;;;;;-2.00;100.00;94640.09;5016694;28;20031;-67
2023/12/23 04:43:30;;;;;;;;;;;;;;;-1.89;100.00;94628.81;5016506;28;20046;-66
2023/12/23 04:45:55;;;;;;;;;;;;;;;-1.93;100.00;94663.09;5016799;28;20040;-67
2023/12/23 04:48:21;;;;;;;;;;;;;;;-1.84;100.00;94641.47;5020439;28;19974;-66
2023/12/23 04:50:46;;;;;;;;;;;;;;;-1.74;100.00;94660.66;5020331;28;20029;-66
2023/12/23 04:53:12;;;;;;;;;;;;;;;-1.71;100.00;94688.28;5019461;28;20396;-66
2023/12/23 04:55:37;;;;;;;;;;;;;;;-1.88;100.00;94640.88;5019704;28;20051;-67
2023/12/23 04:58:02;;;;;;;;;;;;;;;-1.77;100.00;94647.84;5020367;28;20519;-66
2023/12/23 05:00:27;;;;;;;;;;;;;;;-1.83;100.00;94650.97;5020305;28;20017;-66
2023/12/23 05:02:53;;;;;;;;;;;;;;;-1.72;100.00;94643.06;5018980;28;20035;-66
2023/12/23 05:05:18;;;;;;;;;;;;;;;-1.73;100.00;94644.03;5019466;28;20051;-66
2023/12/23 05:07:43;;;;;;;;;;;;;;;-1.84;100.00;94636.22;5019973;28;19969;-67
2023/12/23 05:10:09;;;;;;;;;;;;;;;-1.44;100.00;94641.75;5020004;28;19997;-66
2023/12/23 05:12:34;;;;;;;;;;;;;;;-0.90;100.00;94615.53;5018133;28;19982;-66
2023/12/23 05:15:00;;;;;;;;;;;;;;;-0.18;99.21;94629.38;5008410;28;20101;-66
2023/12/23 05:17:25;;;;;;;;;;;;;;;0.20;96.30;94618.25;5018986;28;20414;-67
2023/12/23 05:19:50;;;;;;;;;;;;;;;0.56;92.66;94628.16;5020037;28;19977;-67
2023/12/23 05:22:16;;;;;;;;;;;;;;;0.40;92.71;94616.44;5020563;28;20047;-66
2023/12/23 05:24:42;;;;;;;;;;;;;;;0.16;93.37;94609.00;5019155;28;19973;-66
2023/12/23 05:27:07;;;;;;;;;;;;;;;0.04;94.12;94640.56;5019123;28;20020;-66
2023/12/23 05:29:33;;;;;;;;;;;;;;;0.10;93.56;94625.28;5017928;28;19989;-66
2023/12/23 05:31:58;;;;;;;;;;;;;;;1.28;86.92;94621.63;5019289;28;20510;-66
2023/12/23 05:34:23;;;;;;;;;;;;;;;1.26;87.00;94597.34;5018528;28;20011;-66
2023/12/23 05:36:49;;;;;;;;;;;;;;;0.90;87.99;94638.16;5019089;28;20689;-66
2023/12/23 05:39:14;;;;;;;;;;;;;;;0.28;92.41;94604.47;5019389;28;19997;-67
2023/12/23 05:41:40;;;;;;;;;;;;;;;0.53;94.12;94637.13;5019008;28;20439;-66
2023/12/23 05:44:07;;;;;;;;;;;;;;;1.00;92.93;94585.72;5019289;28;20072;-66
2023/12/23 05:46:32;;;;;;;;;;;;;;;0.93;90.21;94595.13;5014668;28;20025;-66
2023/12/23 05:48:58;;;;;;;;;;;;;;;1.15;88.53;94587.84;5018884;28;20648;-66
2023/12/23 05:51:23;;;;;;;;;;;;;;;0.93;89.38;94595.13;5019107;28;20001;-66
2023/12/23 05:53:48;;;;;;;;;;;;;;;0.96;90.21;94669.03;5018860;28;20000;-67
2023/12/23 05:56:13;;;;;;;;;;;;;;;0.99;92.36;94612.91;5018699;28;20064;-65
2023/12/23 05:58:39;;;;;;;;;;;;;;;-0.48;96.72;94606.72;5018048;28;20048;-66
2023/12/23 06:01:06;;;;;;;;;;;;;;;0.15;99.07;94608.19;5018299;28;20085;-67
2023/12/23 06:03:31;;;;;;;;;;;;;;;0.58;94.84;94573.84;5012547;28;20075;-66
2023/12/23 06:05:57;;;;;;;;;;;;;;;0.47;93.35;94590.53;5018072;28;20197;-66
2023/12/23 06:08:22;;;;;;;;;;;;;;;0.17;93.70;94580.06;5018806;28;19973;-67
2023/12/23 06:10:47;;;;;;;;;;;;;;;-0.48;96.28;94606.72;5018327;28;19994;-68
2023/12/23 06:13:13;;;;;;;;;;;;;;;-0.81;97.87;94591.25;5018339;28;19989;-67
2023/12/23 06:15:38;;;;;;;;;;;;;;;-0.98;100.00;94587.44;5013007;28;19973;-67
2023/12/23 06:18:03;;;;;;;;;;;;;;;-0.46;97.30;94583.88;5013670;28;20036;-66
2023/12/23 06:20:28;;;;;;;;;;;;;;;-0.58;96.51;94564.84;5018552;28;19977;-67
2023/12/23 06:22:54;;;;;;;;;;;;;;;-0.44;96.53;94608.09;5018735;28;19993;-66
2023/12/23 06:25:19;;;;;;;;;;;;;;;-0.67;98.80;94594.44;5017811;28;20012;-66
2023/12/23 06:27:44;;;;;;;;;;;;;;;-0.91;99.34;94580.75;5018565;28;19973;-65
2023/12/23 06:30:10;;;;;;;;;;;;;;;-0.91;99.78;94559.84;5017556;28;19993;-65
2023/12/23 06:32:35;;;;;;;;;;;;;;;-155.54;100.00;57697.75;5018070;28;20131;-66
2023/12/23 06:35:01;;;;;;;;;;;;;;;-1.81;100.00;94575.97;5017330;28;20478;-66
2023/12/23 06:37:26;;;;;;;;;;;;;;;-1.84;100.00;94571.00;5017338;28;19997;-66
2023/12/23 06:39:51;;;;;;;;;;;;;;;-1.79;100.00;94566.25;5018368;28;19973;-66
2023/12/23 06:42:17;;;;;;;;;;;;;;;-1.85;100.00;94545.88;5018123;28;19997;-66
2023/12/23 06:44:43;;;;;;;;;;;;;;;-1.87;100.00;94568.63;5017560;28;20282;-66
2023/12/23 06:47:08;;;;;;;;;;;;;;;-2.03;100.00;94562.06;5017435;28;20032;-66
2023/12/23 06:49:33;;;;;;;;;;;;;;;-2.01;100.00;94596.69;5017133;28;20015;-66
2023/12/23 06:51:58;;;;;;;;;;;;;;;-1.74;100.00;94566.69;5018110;28;19978;-66
2023/12/23 06:54:24;;;;;;;;;;;;;;;-1.37;100.00;94556.72;5017105;28;20028;-66
2023/12/23 06:56:49;;;;;;;;;;;;;;;-0.67;100.00;94563.06;5017894;28;20001;-66
2023/12/23 06:59:14;;;;;;;;;;;;;;;-0.05;98.54;94594.28;5017593;28;19998;-66
2023/12/23 07:01:39;;;;;;;;;;;;;;;0.50;95.07;94569.28;5016540;28;20415;-66
2023/12/23 07:04:06;;;;;;;;;;;;;;;0.73;92.43;94538.34;5018284;28;20036;-67
2023/12/23 07:06:32;;;;;;;;;;;;;;;0.08;94.33;94549.50;5017749;28;20490;-66
2023/12/23 07:08:57;;;;;;;;;;;;;;;-0.64;99.35;94581.09;5017187;28;20026;-67
2023/12/23 07:11:22;;;;;;;;;;;;;;;-0.80;100.00;94581.59;5017755;28;20778;-67
2023/12/23 07:13:47;;;;;;;;;;;;;;;-0.90;100.00;94555.44;5016903;28;20028;-66
2023/12/23 07:16:13;;;;;;;;;;;;;;;-0.83;100.00;94593.16;5012537;28;19973;-66
2023/12/23 07:18:38;;;;;;;;;;;;;;;-0.60;100.00;94624.31;5017309;28;20359;-66
2023/12/23 07:21:03;;;;;;;;;;;;;;;-1.52;100.00;94592.78;5018049;28;19977;-65
2023/12/23 07:23:28;;;;;;;;;;;;;;;-1.35;100.00;94580.94;5017509;28;20421;-67
2023/12/23 07:25:54;;;;;;;;;;;;;;;-1.43;100.00;94559.88;5016534;28;19993;-67
2023/12/23 07:28:19;;;;;;;;;;;;;;;-1.33;100.00;94584.22;5016604;28;20012;-67
2023/12/23 07:30:44;;;;;;;;;;;;;;;-1.47;100.00;94596.66;5016995;28;20000;-66
2023/12/23 07:33:13;;;;;;;;;;;;;;;-1.42;100.00;94585.84;5017448;28;20441;-67
2023/12/23 07:35:38;;;;;;;;;;;;;;;-1.41;100.00;94577.06;5014945;28;20131;-66
2023/12/23 07:38:05;;;;;;;;;;;;;;;-1.10;100.00;94602.34;5013029;28;21436;-67
2023/12/23 07:40:31;;;;;;;;;;;;;;;-0.65;100.00;94569.00;5017719;28;19973;-66
2023/12/23 07:42:56;;;;;;;;;;;;;;;-0.93;100.00;94571.38;5019125;28;20047;-66
2023/12/23 07:45:23;;;;;;;;;;;;;;;-0.90;100.00;94574.56;5017472;28;20489;-66
2023/12/23 07:47:48;;;;;;;;;;;;;;;-0.79;100.00;94594.53;5017433;28;19978;-67
2023/12/23 07:50:14;;;;;;;;;;;;;;;-0.85;100.00;94602.88;5016651;28;20484;-66
2023/12/23 07:52:39;;;;;;;;;;;;;;;-0.76;100.00;94586.44;5016315;28;19988;-67
2023/12/23 07:55:05;;;;;;;;;;;;;;;-0.84;100.00;94581.84;5016884;28;20485;-67
2023/12/23 07:57:30;;;;;;;;;;;;;;;-0.76;100.00;94582.97;5016871;28;20094;-66
2023/12/23 07:59:55;;;;;;;;;;;;;;;-0.84;100.00;94623.66;5017010;28;20689;-67
2023/12/23 08:02:21;;;;;;;;;;;;;;;-0.85;100.00;94589.81;5016579;28;20004;-67
2023/12/23 08:04:46;;;;;;;;;;;;;;;-0.58;100.00;94602.31;5017077;28;19973;-67
2023/12/23 08:07:11;;;;;;;;;;;;;;;0.14;97.04;94574.31;5016793;28;19997;-66
2023/12/23 08:09:36;;;;;;;;;;;;;;;0.17;96.22;94594.97;5016359;28;19993;-67
2023/12/23 08:12:02;;;;;;;;;;;;;;;0.06;94.87;94580.22;5017521;28;19974;-67
2023/12/23 08:14:27;;;;;;;;;;;;;;;0.01;96.14;94572.81;5015879;28;20503;-66
2023/12/23 08:16:52;;;;;;;;;;;;;;;-0.16;97.10;94595.22;5011953;28;20004;-67
2023/12/23 08:19:18;;;;;;;;;;;;;;;-0.26;98.60;94587.38;5016947;28;19997;-67
2023/12/23 08:21:43;;;;;;;;;;;;;;;-0.74;100.00;94596.75;5019983;28;20020;-66
2023/12/23 08:24:08;;;;;;;;;;;;;;;-0.73;100.00;94583.56;5020735;28;20823;-66
2023/12/23 08:26:33;;;;;;;;;;;;;;;-0.28;99.40;94607.59;5020726;28;20099;-66
2023/12/23 08:28:59;;;;;;;;;;;;;;;0.20;96.36;94586.81;5018385;28;20000;-66
2023/12/23 08:31:24;;;;;;;;;;;;;;;0.32;95.24;94577.88;5020006;28;20099;-67
2023/12/23 08:33:50;;;;;;;;;;;;;;;0.47;94.13;94606.22;5020585;28;20006;-65
2023/12/23 08:36:15;;;;;;;;;;;;;;;-0.30;99.10;94586.00;5019978;28;19985;-66
2023/12/23 08:38:40;;;;;;;;;;;;;;;-0.46;99.68;94569.03;5019124;28;20068;-65
2023/12/23 08:41:05;;;;;;;;;;;;;;;-0.56;100.00;94599.56;5020244;28;20104;-68
2023/12/23 08:43:31;;;;;;;;;;;;;;;-0.31;100.00;94586.94;5020649;28;20170;-68
2023/12/23 08:45:56;;;;;;;;;;;;;;;0.00;98.30;94584.22;5019918;28;20035;-67
2023/12/23 08:48:21;;;;;;;;;;;;;;;0.13;96.17;94583.94;5021194;28;20066;-67
2023/12/23 08:50:47;;;;;;;;;;;;;;;-0.11;98.25;94581.72;5019921;28;20004;-66
2023/12/23 08:53:12;;;;;;;;;;;;;;;-0.26;99.18;94568.22;5019584;28;20124;-66
2023/12/23 08:55:37;;;;;;;;;;;;;;;-0.33;99.68;94588.88;5027064;28;19969;-66
2023/12/23 08:58:03;;;;;;;;;;;;;;;0.02;98.30;94574.44;5019576;28;19997;-66
2023/12/23 09:00:28;;;;;;;;;;;;;;;-0.03;97.30;94558.31;5019099;28;20491;-66
2023/12/23 09:02:53;;;;;;;;;;;;;;;-0.07;97.30;94606.66;5018850;28;19997;-66
2023/12/23 09:05:19;;;;;;;;;;;;;;;0.00;97.44;94573.75;5019752;28;19974;-66
2023/12/23 09:07:44;;;;;;;;;;;;;;;0.83;94.31;94579.41;5020450;28;20000;-66
2023/12/23 09:10:09;;;;;;;;;;;;;;;0.59;93.14;94581.53;5020170;28;19995;-67
2023/12/23 09:12:35;;;;;;;;;;;;;;;0.38;97.01;94576.47;5019766;28;19973;-66
2023/12/23 09:15:01;;;;;;;;;;;;;;;0.59;94.55;94599.06;5014664;28;20506;-66
2023/12/23 09:17:26;;;;;;;;;;;;;;;0.76;94.20;94604.53;5019225;28;20084;-67
2023/12/23 09:19:52;;;;;;;;;;;;;;;0.56;94.86;94599.34;5019999;28;19970;-66
2023/12/23 09:22:17;;;;;;;;;;;;;;;0.16;96.24;94614.25;5019740;28;20029;-66
2023/12/23 09:24:45;;;;;;;;;;;;;;;0.05;98.00;94599.50;5019885;28;20445;-66
2023/12/23 09:27:10;;;;;;;;;;;;;;;-0.16;97.73;94620.56;5017855;28;19997;-66
2023/12/23 09:29:35;;;;;;;;;;;;;;;-0.51;100.00;94630.56;5016936;28;19989;-66
2023/12/23 09:32:01;;;;;;;;;;;;;;;-1.25;100.00;94675.81;5018545;28;20063;-66
2023/12/23 09:34:26;;;;;;;;;;;;;;;-1.32;100.00;94632.91;5018564;28;20084;-67
2023/12/23 09:36:51;;;;;;;;;;;;;;;-1.45;100.00;94620.03;5019963;28;20044;-66
2023/12/23 09:39:17;;;;;;;;;;;;;;;-1.34;100.00;94677.44;5019119;28;20526;-66
2023/12/23 09:41:42;;;;;;;;;;;;;;;-1.32;100.00;94656.41;5018671;28;20505;-67
2023/12/23 09:44:07;;;;;;;;;;;;;;;-1.53;100.00;94662.44;5019464;28;20015;-67
2023/12/23 09:46:34;;;;;;;;;;;;;;;-1.36;100.00;94634.09;5019841;28;19993;-66
2023/12/23 09:49:00;;;;;;;;;;;;;;;-1.50;100.00;94684.84;5017976;28;20055;-66
2023/12/23 09:51:25;;;;;;;;;;;;;;;-1.66;100.00;94686.09;5019159;28;20036;-67
2023/12/23 09:53:50;;;;;;;;;;;;;;;-1.73;100.00;94649.25;5017710;28;20000;-66
2023/12/23 09:56:16;;;;;;;;;;;;;;;-1.52;100.00;94608.44;5017540;28;19974;-66
2023/12/23 09:58:42;;;;;;;;;;;;;;;-1.52;100.00;94647.63;5018710;28;20424;-66
2023/12/23 10:01:08;;;;;;;;;;;;;;;-1.17;100.00;94636.00;5018909;28;19975;-66
2023/12/23 10:03:34;;;;;;;;;;;;;;;-0.90;100.00;94645.13;5017363;28;20576;-66
2023/12/23 10:06:00;;;;;;;;;;;;;;;0.05;100.00;94665.78;5018575;28;20000;-66
2023/12/23 10:08:25;;;;;;;;;;;;;;;0.56;97.27;94641.25;5019581;28;20494;-66
2023/12/23 10:10:51;;;;;;;;;;;;;;;0.72;95.54;94607.44;5018265;28;20068;-66
2023/12/23 10:13:17;;;;;;;;;;;;;;;1.09;93.41;94660.88;5018935;28;19974;-66
2023/12/23 10:15:42;;;;;;;;;;;;;;;1.19;91.58;94652.97;5018296;28;20429;-66
2023/12/23 10:18:10;;;;;;;;;;;;;;;0.55;94.93;94655.31;5018043;28;20123;-66
2023/12/23 10:20:35;;;;;;;;;;;;;;;0.66;95.80;94628.13;5019151;28;19973;-66
2023/12/23 10:23:01;;;;;;;;;;;;;;;1.09;93.52;94610.25;5017780;28;20572;-67
2023/12/23 10:25:26;;;;;;;;;;;;;;;1.96;86.84;94640.63;5017931;28;19997;-66
2023/12/23 10:27:52;;;;;;;;;;;;;;;2.06;86.33;94623.03;5018327;28;20150;-67
2023/12/23 10:30:18;;;;;;;;;;;;;;;1.62;89.37;94621.91;5016927;28;20754;-66
2023/12/23 10:32:43;;;;;;;;;;;;;;;1.63;88.60;94622.72;5017248;28;19978;-66
2023/12/23 10:35:09;;;;;;;;;;;;;;;1.99;86.83;94649.06;5016121;28;20006;-66
2023/12/23 10:37:34;;;;;;;;;;;;;;;1.06;90.62;94627.06;5018204;28;20020;-66
2023/12/23 10:39:59;;;;;;;;;;;;;;;0.62;94.14;94632.84;5016352;28;19980;-66
2023/12/23 10:42:25;;;;;;;;;;;;;;;0.14;97.59;94637.13;5018145;28;20076;-66
2023/12/23 10:44:50;;;;;;;;;;;;;;;0.30;97.09;94673.22;5017896;28;20178;-66
2023/12/23 10:47:16;;;;;;;;;;;;;;;-0.06;100.00;94669.31;5017752;28;19993;-66
2023/12/23 10:49:42;;;;;;;;;;;;;;;0.07;99.83;94655.16;5017988;28;20032;-66
2023/12/23 10:52:07;;;;;;;;;;;;;;;0.38;97.13;94628.03;5016657;28;19969;-66
2023/12/23 10:54:34;;;;;;;;;;;;;;;0.31;97.07;94638.25;5017158;28;19997;-66
2023/12/23 10:56:59;;;;;;;;;;;;;;;0.03;98.20;94633.66;5017602;28;20036;-68
2023/12/23 10:59:25;;;;;;;;;;;;;;;-0.13;98.98;94630.75;5016749;28;20512;-68
2023/12/23 11:01:50;;;;;;;;;;;;;;;-0.49;100.00;94644.31;5016427;28;20184;-68
2023/12/23 11:04:15;;;;;;;;;;;;;;;-0.52;100.00;94642.78;5018071;28;20409;-68
2023/12/23 11:06:42;;;;;;;;;;;;;;;-0.37;100.00;94647.66;5017349;28;20017;-68
2023/12/23 11:09:07;;;;;;;;;;;;;;;-0.12;99.83;94621.94;5016386;28;20354;-68
2023/12/23 11:11:32;;;;;;;;;;;;;;;0.48;97.72;94641.94;5015710;28;20023;-68
2023/12/23 11:13:58;;;;;;;;;;;;;;;0.65;93.09;94656.13;5016495;28;19993;-68
2023/12/23 11:16:23;;;;;;;;;;;;;;;0.25;97.58;94702.47;5015969;28;19976;-67
2023/12/23 11:18:50;;;;;;;;;;;;;;;0.91;97.16;94649.47;5015697;28;20302;-68
2023/12/23 11:21:18;;;;;;;;;;;;;;;0.88;97.24;94623.56;5017837;28;20506;-68
2023/12/23 11:23:44;;;;;;;;;;;;;;;1.50;91.93;94644.03;5016023;28;20564;-68
2023/12/23 11:26:28;;;;;;;;;;;;;;;1.53;91.72;94642.91;5017150;28;19996;-68
2023/12/23 11:28:53;;;;;;;;;;;;;;;1.97;88.70;94621.28;5014681;28;19981;-68
2023/12/23 11:31:18;;;;;;;;;;;;;;;1.07;91.24;94633.97;5015571;28;19990;-68
2023/12/23 11:33:43;;;;;;;;;;;;;;;0.44;96.39;94657.09;5015379;28;20008;-68
2023/12/23 11:36:09;;;;;;;;;;;;;;;0.38;96.90;94634.06;5015791;28;20064;-69
2023/12/23 11:38:47;;;;;;;;;;;;;;;1.04;93.85;94630.81;5015432;28;20056;-69
2023/12/23 11:41:13;;;;;;;;;;;;;;;0.47;94.21;94645.53;5017597;28;19978;-68
2023/12/23 11:43:38;;;;;;;;;;;;;;;0.39;96.76;94629.69;5017807;28;19973;-68
2023/12/23 11:46:03;;;;;;;;;;;;;;;0.60;95.99;94647.88;5015157;28;20421;-69
2023/12/23 11:48:28;;;;;;;;;;;;;;;1.29;91.67;94641.66;5017619;28;19977;-68
2023/12/23 11:50:56;;;;;;;;;;;;;;;0.18;97.28;94649.78;5016954;28;19997;-68
2023/12/23 11:53:22;;;;;;;;;;;;;;;0.08;98.62;94670.72;5015111;28;19978;-69
2023/12/23 11:55:47;;;;;;;;;;;;;;;-0.22;99.99;94659.41;5016566;28;19969;-68
2023/12/23 11:58:12;;;;;;;;;;;;;;;0.72;96.13;94672.94;5017346;28;20482;-74
2023/12/23 12:00:40;;;;;;;;;;;;;;;1.50;89.61;94663.22;5015948;28;20304;-74
2023/12/23 12:03:05;;;;;;;;;;;;;;;1.43;90.35;94645.59;5015794;28;20000;-73
2023/12/23 12:05:31;;;;;;;;;;;;;;;2.04;85.59;94637.28;5017137;28;20251;-74
2023/12/23 12:07:56;;;;;;;;;;;;;;;1.57;88.31;94736.16;5017716;28;19976;-74
2023/12/23 12:10:21;;;;;;;;;;;;;;;1.22;89.76;94631.72;5017250;28;19996;-74
2023/12/23 12:12:46;;;;;;;;;;;;;;;1.80;88.87;94647.34;5017723;28;20603;-74
2023/12/23 12:15:12;;;;;;;;;;;;;;;2.02;87.11;94689.94;5016899;28;19989;-75
2023/12/23 12:17:37;;;;;;;;;;;;;;;2.01;84.89;94633.97;5016921;28;20518;-75
2023/12/23 12:20:02;;;;;;;;;;;;;;;2.22;87.82;94632.03;5017347;28;20426;-74
2023/12/23 12:22:28;;;;;;;;;;;;;;;2.19;84.54;94614.78;5016796;28;20001;-74
2023/12/23 12:24:53;;;;;;;;;;;;;;;2.35;84.59;94615.91;5016953;28;19977;-74
2023/12/23 12:27:18;;;;;;;;;;;;;;;2.23;85.73;94617.91;5017048;28;20004;-74
2023/12/23 12:29:43;;;;;;;;;;;;;;;1.75;84.75;94618.09;5015372;28;19989;-74
2023/12/23 12:32:15;;;;;;;;;;;;;;;2.03;86.44;94617.22;5017767;28;20148;-75
2023/12/23 12:34:40;;;;;;;;;;;;;;;1.36;87.61;94643.53;5016649;28;20661;-75
2023/12/23 12:37:05;;;;;;;;;;;;;;;0.58;92.99;94618.38;5017045;28;19996;-75